Latest Weather Observations for Taree Airport

IDN60801

Issued at 6:32 pm EST Sunday 24 September 2017 (issued every 30 minutes, with the page automatically refreshed every 10 minutes)

About weather observations | Map of weather stations | Latest weather observations for NSW | Other Formats
Station Details ID: 060141 Name: TAREE AIRPORT AWS Lat: -31.89 Lon: 152.51 Height: 8.0 m
Data from the previous 72 hours. | See also: Recent months at Taree Airport
Date/Time
EST
Temp
°C
App
Temp
°C
Dew
Point
°C
Rel
Hum
%
Delta-T
°C
Wind Press
QNH
hPa
Press
MSL
hPa
Rain since
9am
mm
Dir  Spd
km/h
Gust
km/h
Spd
kts
Gust
kts
24/06:30pm 31.9 26.2 3.0 16 14.8 WNW 22 37 12 20 1003.0 1003.0 0.0
24/06:00pm 32.1 24.4 2.2 15 15.1 WNW 32 56 17 30 1002.7 1002.7 0.0
24/05:53pm 32.3 25.2 1.4 14 15.3 WNW 28 48 15 26 1002.3 1002.3 0.0
24/05:30pm 32.5 25.8 1.6 14 15.4 WNW 26 41 14 22 1003.0 1003.0 0.0
24/05:00pm 33.1 24.8 2.1 14 15.7 WNW 35 59 19 32 1002.4 1002.4 0.0
24/04:30pm 34.0 26.4 2.8 14 16.0 WNW 32 50 17 27 1002.1 1002.1 0.0
24/04:07pm 34.3 23.9 2.0 13 16.4 WNW 46 91 25 49 1001.7 1001.7 0.0
24/04:01pm 34.8 26.3 1.2 12 16.9 WNW 35 91 19 49 1001.5 1001.5 0.0
24/04:00pm 34.8 26.9 1.2 12 17.0 WNW 32 70 17 38 1001.5 1001.5 0.0
24/03:36pm 35.1 27.1 1.5 12 17.0 WNW 33 52 18 28 1001.1 1001.1 0.0
24/03:30pm 35.1 27.3 1.5 12 17.0 WNW 32 44 17 24 1001.0 1001.0 0.0
24/03:00pm 35.6 26.9 1.8 12 17.3 WNW 37 56 20 30 1001.1 1001.1 0.0
24/02:30pm 35.7 26.4 3.0 13 17.0 WNW 41 59 22 32 1001.3 1001.3 0.0
24/02:00pm 36.0 26.6 2.1 12 17.5 WNW 41 65 22 35 1001.4 1001.4 0.0
24/01:41pm 36.5 25.6 1.3 11 17.9 NW 48 74 26 40 1001.5 1001.5 0.0
24/01:39pm 36.6 25.9 0.1 10 18.2 NW 46 74 25 40 1001.4 1001.4 0.0
24/01:34pm 36.3 26.1 -0.2 10 18.1 WNW 43 74 23 40 1001.3 1001.3 0.0
24/01:30pm 36.7 27.5 1.5 11 18.0 WNW 39 59 21 32 1001.3 1001.3 0.0
24/01:00pm 36.6 26.8 0.1 10 18.3 WNW 41 78 22 42 1001.3 1001.3 0.0
24/12:30pm 36.9 28.5 1.6 11 18.1 WNW 35 63 19 34 1001.3 1001.3 0.0
24/12:00pm 36.3 26.5 -0.2 10 18.2 WNW 41 72 22 39 1002.1 1002.1 0.0
24/11:40am 36.7 27.3 0.1 10 18.3 WNW 39 63 21 34 1002.4 1002.4 0.0
24/11:36am 37.4 29.7 3.2 12 18.0 WNW 33 63 18 34 1002.2 1002.2 0.0
24/11:34am 36.9 29.7 2.8 12 17.8 WNW 30 50 16 27 1002.2 1002.2 0.0
24/11:30am 36.6 29.5 1.4 11 18.0 WNW 28 44 15 24 1002.2 1002.2 0.0
24/11:00am 36.0 28.5 0.9 11 17.8 WNW 30 48 16 26 1002.2 1002.2 0.0
24/10:56am 36.1 29.1 2.2 12 17.5 NW 28 48 15 26 1002.2 1002.2 0.0
24/10:30am 34.9 29.7 5.4 16 15.9 NW 22 39 12 21 1002.1 1002.1 0.0
24/10:00am 34.7 28.5 4.3 15 16.1 NW 26 39 14 21 1002.5 1002.5 0.0
24/09:30am 34.1 27.4 3.8 15 15.8 WNW 28 46 15 25 1003.3 1003.3 0.0
24/09:00am 33.9 27.0 4.6 16 15.5 WNW 30 48 16 26 1004.1 1004.1 0.2
24/08:49am 33.1 28.3 4.8 17 14.9 WNW 19 46 10 25 1004.2 1004.2 0.2
24/08:30am 31.5 29.5 7.2 22 13.2 NE 7 11 4 6 1003.7 1003.7 0.2
24/08:00am 28.8 26.9 9.0 29 11.0 NE 9 11 5 6 1003.6 1003.6 0.2
24/07:30am 26.2 24.4 9.5 35 9.2 ENE 9 13 5 7 1003.4 1003.4 0.2
24/07:00am 23.6 22.1 9.2 40 7.8 N 7 15 4 8 1003.0 1003.0 0.2
24/06:30am 20.6 20.1 9.2 48 6.0 N 2 7 1 4 1003.2 1003.2 0.2
24/06:00am 21.6 20.6 7.4 40 7.4 ESE 2 9 1 5 1002.6 1002.6 0.2
24/05:30am 24.3 21.6 5.6 30 9.5 NE 9 15 5 8 1002.1 1002.1 0.2
24/05:00am 24.2 21.1 5.5 30 9.5 NNE 11 19 6 10 1002.2 1002.2 0.2
24/04:30am 23.8 20.2 5.2 30 9.3 NE 13 19 7 10 1002.0 1002.0 0.2
24/04:00am 23.8 21.0 5.2 30 9.4 NNE 9 15 5 8 1002.4 1002.4 0.2
24/03:30am 24.5 21.5 4.3 27 10.0 NE 9 13 5 7 1002.5 1002.5 0.2
24/03:00am 27.0 23.6 4.1 23 11.6 NNE 11 19 6 10 1002.9 1002.9 0.2
24/02:30am 26.2 22.5 6.3 28 10.4 N 15 20 8 11 1003.0 1003.0 0.2
24/02:22am 24.0 20.9 7.2 34 8.8 N 13 17 7 9 1003.2 1003.2 0.2
24/02:00am 18.8 17.5 11.1 61 4.2 N 9 15 5 8 1003.6 1003.6 0.2
24/01:30am 15.6 14.2 10.8 73 2.5 NNE 9 13 5 7 1004.0 1004.0 0.2
24/01:00am 14.5 13.4 10.7 78 2.0 NNE 7 11 4 6 1004.2 1004.2 0.2
24/12:30am 16.4 16.1 12.6 78 2.1 SW 6 11 3 6 1004.7 1004.7 0.2
24/12:00am 17.3 18.0 12.2 72 2.8 CALM 0 4 0 2 1004.7 1004.7 0.2
 
Date/Time
EST
Temp
°C
App
Temp
°C
Dew
Point
°C
Rel
Hum
%
Delta-T
°C
Wind Press
QNH
hPa
Press
MSL
hPa
Rain since
9am
mm
Dir  Spd
km/h
Gust
km/h
Spd
kts
Gust
kts
23/11:30pm 17.9 18.2 12.1 69 3.2 WSW 2 7 1 4 1004.8 1004.8 0.2
23/11:00pm 19.5 19.7 12.0 62 4.2 SW 2 7 1 4 1004.7 1004.7 0.2
23/10:30pm 18.9 18.8 12.2 65 3.7 SW 4 9 2 5 1004.9 1004.9 0.2
23/10:00pm 20.0 20.8 12.7 63 4.1 CALM 0 0 0 0 1005.1 1005.1 0.2
23/09:30pm 21.4 20.1 11.1 52 5.7 NNE 9 13 5 7 1005.3 1005.3 0.2
23/09:00pm 22.5 22.8 10.9 48 6.4 CALM 0 7 0 4 1005.7 1005.7 0.2
23/08:30pm 24.6 22.8 10.8 42 7.7 NNE 11 17 6 9 1005.8 1005.8 0.2
23/08:00pm 24.2 22.6 10.1 41 7.8 NNE 9 11 5 6 1005.8 1005.8 0.2
23/07:30pm 24.0 21.6 8.8 38 8.2 NE 11 13 6 7 1005.9 1005.9 0.2
23/07:00pm 26.7 24.3 8.6 32 9.9 NNE 11 17 6 9 1005.8 1005.8 0.2
23/06:30pm 27.5 24.9 7.9 29 10.6 NNE 11 17 6 9 1005.6 1005.6 0.2
23/06:00pm 28.4 25.0 7.6 27 11.2 NNE 15 24 8 13 1005.4 1005.4 0.2
23/05:30pm 29.0 26.1 8.1 27 11.4 NNE 13 24 7 13 1005.2 1005.2 0.2
23/05:00pm 29.9 27.2 8.9 27 11.7 NE 13 24 7 13 1005.1 1005.1 0.2
23/04:30pm 30.0 28.2 12.0 33 10.5 NE 13 17 7 9 1005.0 1005.0 0.2
23/04:00pm 29.6 26.9 11.6 33 10.5 ENE 17 22 9 12 1004.9 1004.9 0.2
23/03:30pm 30.8 27.8 12.7 33 10.7 ENE 20 32 11 17 1005.1 1005.1 0.2
23/03:00pm 29.8 27.3 12.3 34 10.3 E 17 24 9 13 1005.4 1005.4 0.2
23/02:30pm 29.8 27.8 14.0 38 9.5 E 17 26 9 14 1005.4 1005.4 0.2
23/02:00pm 31.2 27.6 13.0 33 10.9 E 24 33 13 18 1005.9 1005.9 0.2
23/01:30pm 31.8 28.0 11.0 28 12.0 E 22 32 12 17 1006.3 1006.3 0.2
23/01:00pm 32.6 29.2 10.6 26 12.7 E 19 26 10 14 1006.8 1006.8 0.2
23/12:30pm 33.7 29.9 7.6 20 14.5 E 17 22 9 12 1007.3 1007.3 0.2
23/12:00pm 32.0 29.4 9.5 25 12.8 E 13 20 7 11 1008.2 1008.2 0.2
23/11:30am 31.0 29.5 10.4 28 11.8 E 9 17 5 9 1008.8 1008.8 0.2
23/11:00am 30.1 29.0 12.1 33 10.5 E 9 15 5 8 1009.4 1009.4 0.2
23/10:30am 28.7 28.2 12.6 37 9.4 ENE 7 13 4 7 1010.0 1010.0 0.2
23/10:00am 25.9 25.6 11.6 40 8.1 WSW 4 9 2 5 1010.7 1010.7 0.0
23/09:30am 24.1 23.4 11.4 45 7.1 S 6 7 3 4 1011.2 1011.2 0.0
23/09:00am 22.2 21.6 11.6 51 5.9 E 6 9 3 5 1011.7 1011.7 0.0
23/08:30am 20.3 20.0 10.1 52 5.5 NW 2 7 1 4 1011.8 1011.8 0.0
23/08:00am 17.6 16.4 10.2 62 3.9 W 7 9 4 5 1012.0 1012.0 0.0
23/07:30am 15.5 14.7 10.9 74 2.4 W 6 9 3 5 1011.8 1011.8 0.0
23/07:00am 12.6 13.3 12.1 97 0.3 CALM 0 0 0 0 1011.7 1011.7 0.0
23/06:30am 10.4 10.4 9.9 97 0.3 CALM 0 0 0 0 1011.5 1011.5 0.0
23/06:00am 9.9 9.0 9.3 96 0.3 WNW 4 11 2 6 1011.6 1011.6 0.0
23/05:30am 10.1 10.0 9.5 96 0.3 CALM 0 0 0 0 1011.8 1011.8 0.0
23/05:00am 10.7 10.4 10.2 97 0.3 NW 2 6 1 3 1011.6 1011.6 0.0
23/04:30am 10.2 10.2 9.9 98 0.2 CALM 0 0 0 0 1011.4 1011.4 0.0
23/04:00am 10.7 10.9 10.5 99 0.1 CALM 0 0 0 0 1011.1 1011.1 0.0
23/03:30am 9.7 9.2 9.4 98 0.1 WNW 2 7 1 4 1011.3 1011.3 0.0
23/03:00am 11.0 10.5 10.8 99 0.1 WNW 4 7 2 4 1011.1 1011.1 0.0
23/02:32am 10.5 10.5 9.9 96 0.3 CALM 0 0 0 0 1011.2 1011.2 0.0
23/02:30am 10.5 10.5 9.7 95 0.4 CALM 0 0 0 0 1011.2 1011.2 0.0
23/02:12am 12.2 12.1 12.0 99 0.1 W 4 9 2 5 1011.6 1011.6 0.0
23/02:00am 11.8 12.3 11.5 98 0.2 CALM 0 0 0 0 1011.5 1011.5 0.0
23/01:47am 11.3 11.5 10.4 94 0.5 CALM 0 0 0 0 1011.5 1011.5 0.0
23/01:30am 12.4 11.6 11.0 91 0.7 W 6 7 3 4 1012.1 1012.1 0.0
23/01:00am 13.3 12.8 12.5 95 0.4 W 7 9 4 5 1012.3 1012.3 0.0
23/12:30am 12.2 12.6 11.3 94 0.5 CALM 0 0 0 0 1012.5 1012.5 0.0
23/12:00am 14.0 14.0 13.7 98 0.2 W 6 7 3 4 1012.9 1012.9 0.0
 
Date/Time
EST
Temp
°C
App
Temp
°C
Dew
Point
°C
Rel
Hum
%
Delta-T
°C
Wind Press
QNH
hPa
Press
MSL
hPa
Rain since
9am
mm
Dir  Spd
km/h
Gust
km/h
Spd
kts
Gust
kts
22/11:30pm 14.1 15.3 13.9 99 0.1 CALM 0 7 0 4 1013.1 1013.1 0.0
22/11:03pm 13.6 14.4 12.7 94 0.5 CALM 0 6 0 3 1013.1 1013.1 0.0
22/11:00pm 14.3 15.5 13.8 97 0.3 CALM 0 6 0 3 1013.2 1013.2 0.0
22/10:30pm 14.4 15.6 13.8 96 0.3 CALM 0 4 0 2 1013.4 1013.4 0.0
22/10:00pm 15.6 17.4 15.4 99 0.1 CALM 0 0 0 0 1013.2 1013.2 0.0
22/09:35pm 16.1 17.9 15.6 97 0.3 CALM 0 0 0 0 1013.2 1013.2 0.0
22/09:30pm 16.3 17.8 15.7 96 0.4 SSW 2 6 1 3 1013.2 1013.2 0.0
22/09:00pm 16.8 17.2 16.2 96 0.4 SW 9 11 5 6 1013.3 1013.3 0.0
22/08:35pm 17.2 19.4 16.6 96 0.4 CALM 0 0 0 0 1013.1 1013.1 0.0
22/08:30pm 17.1 19.3 16.5 96 0.4 CALM 0 0 0 0 1013.1 1013.1 0.0
22/08:14pm 17.3 19.5 16.5 95 0.5 CALM 0 0 0 0 1012.9 1012.9 0.0
22/08:00pm 17.7 19.8 16.2 91 0.9 CALM 0 0 0 0 1012.8 1012.8 0.0
22/07:30pm 18.0 19.1 16.7 92 0.8 ESE 6 7 3 4 1012.7 1012.7 0.0
22/07:00pm 18.8 21.1 16.8 88 1.2 CALM 0 0 0 0 1012.4 1012.4 0.0
22/06:30pm 19.1 19.7 15.8 81 2.0 ESE 7 7 4 4 1012.1 1012.1 0.0
22/06:00pm 20.5 21.1 15.9 75 2.7 ESE 7 7 4 4 1012.0 1012.0 0.0
22/05:30pm 22.0 21.9 16.1 69 3.6 ENE 11 15 6 8 1011.9 1011.9 0.0
22/05:00pm 23.5 22.8 15.3 60 4.9 E 13 17 7 9 1011.7 1011.7 0.0
22/04:30pm 24.8 23.3 14.3 52 6.2 E 15 17 8 9 1011.7 1011.7 0.0
22/04:00pm 25.7 23.5 13.2 46 7.3 E 17 20 9 11 1011.4 1011.4 0.0
22/03:30pm 26.2 22.6 10.0 36 9.0 E 19 26 10 14 1011.3 1011.3 0.0
22/03:00pm 27.2 23.2 9.1 32 9.9 E 20 28 11 15 1011.3 1011.3 0.0
22/02:30pm 27.8 24.0 9.1 31 10.3 E 19 32 10 17 1011.4 1011.4 0.0
22/02:00pm 27.7 22.9 7.5 28 10.8 E 22 28 12 15 1011.5 1011.5 0.0
22/01:30pm 28.0 23.4 8.3 29 10.7 E 22 30 12 16 1011.6 1011.6 0.0
22/01:00pm 28.3 24.2 10.0 32 10.3 ENE 22 32 12 17 1011.6 1011.6 0.0
22/12:30pm 28.3 25.9 8.6 29 10.8 ESE 11 19 6 10 1011.9 1011.9 0.0
22/12:00pm 29.3 26.4 4.7 21 12.7 S 9 13 5 7 1012.5 1012.5 0.0
22/11:30am 28.6 25.9 7.2 26 11.5 S 11 19 6 10 1013.2 1013.2 0.0
22/11:00am 27.8 25.8 8.6 30 10.5 SSE 9 15 5 8 1013.8 1013.8 0.0
22/10:30am 26.4 23.4 7.9 31 9.9 S 13 15 7 8 1014.2 1014.2 0.0
22/10:00am 25.7 24.4 7.8 32 9.5 NNE 4 9 2 5 1014.6 1014.6 0.0
22/09:30am 23.3 21.7 7.8 37 8.1 S 6 9 3 5 1015.1 1015.1 0.0
22/09:00am 21.1 20.1 9.0 46 6.4 NW 4 9 2 5 1015.5 1015.5 0.0
22/08:30am 18.8 17.3 9.3 54 5.0 WSW 7 11 4 6 1015.7 1015.7 0.0
22/08:00am 16.7 14.5 9.4 62 3.8 NW 11 13 6 7 1015.9 1015.9 0.0
22/07:30am 14.0 12.4 8.8 71 2.6 WSW 7 11 4 6 1015.7 1015.7 0.0
22/07:00am 12.0 11.9 9.4 84 1.3 CALM 0 0 0 0 1015.5 1015.5 0.0
22/06:30am 10.2 8.9 9.1 93 0.5 W 6 9 3 5 1015.3 1015.3 0.0
22/06:00am 9.1 8.9 9.0 99 0.0 CALM 0 7 0 4 1015.0 1015.0 0.0
22/05:30am 6.5 5.6 6.1 97 0.2 CALM 0 0 0 0 1014.8 1014.8 0.0
22/05:04am 8.5 8.1 8.4 99 0.0 CALM 0 0 0 0 1014.5 1014.5 0.0
22/05:00am 8.5 8.1 8.4 99 0.0 CALM 0 0 0 0 1014.5 1014.5 0.0
22/04:45am 7.4 6.6 6.7 95 0.3 CALM 0 0 0 0 1014.3 1014.3 0.0
22/04:30am 8.5 8.0 7.7 95 0.4 CALM 0 0 0 0 1014.2 1014.2 0.0
22/04:00am 9.8 9.7 9.3 97 0.2 CALM 0 0 0 0 1014.0 1014.0 0.0
22/03:30am 9.3 9.0 8.8 97 0.2 CALM 0 0 0 0 1014.1 1014.1 0.0
22/03:00am 8.4 7.8 7.2 92 0.6 CALM 0 0 0 0 1014.1 1014.1 0.0
22/02:30am 10.0 9.9 9.4 96 0.3 CALM 0 0 0 0 1014.3 1014.3 0.0
22/02:00am 8.9 8.3 7.4 90 0.7 CALM 0 0 0 0 1014.5 1014.5 0.0
22/01:30am 10.4 10.3 9.5 94 0.4 CALM 0 0 0 0 1014.9 1014.9 0.0
22/01:00am 11.2 11.1 9.5 89 0.9 CALM 0 0 0 0 1015.1 1015.1 0.0
22/12:30am 11.4 11.3 9.3 87 1.1 CALM 0 0 0 0 1015.3 1015.3 0.0
22/12:00am 12.4 12.3 10.8 90 0.8 WSW 2 7 1 4 1015.4 1015.4 0.0
 
Date/Time
EST
Temp
°C
App
Temp
°C
Dew
Point
°C
Rel
Hum
%
Delta-T
°C
Wind Press
QNH
hPa
Press
MSL
hPa
Rain since
9am
mm
Dir  Spd
km/h
Gust
km/h
Spd
kts
Gust
kts
21/11:30pm 13.0 13.4 11.4 90 0.8 CALM 0 0 0 0 1015.4 1015.4 0.0
21/11:00pm 13.0 13.2 10.5 85 1.3 CALM 0 0 0 0 1015.3 1015.3 0.0
21/10:30pm 13.9 14.5 11.9 88 1.1 CALM 0 0 0 0 1015.5 1015.5 0.0
21/10:00pm 14.2 14.7 11.5 84 1.4 CALM 0 0 0 0 1015.5 1015.5 0.0
21/09:30pm 14.7 14.1 11.7 82 1.6 WSW 6 7 3 4 1015.5 1015.5 0.0
21/09:00pm 14.6 15.0 11.2 80 1.8 CALM 0 0 0 0 1015.5 1015.5 0.0
21/08:30pm 15.9 15.2 11.3 74 2.5 E 6 7 3 4 1015.5 1015.5 0.0
21/08:00pm 15.0 13.5 10.4 74 2.4 ESE 9 9 5 5 1015.4 1015.4 0.0
21/07:30pm 17.1 16.2 10.7 66 3.4 NE 6 11 3 6 1015.1 1015.1 0.0
21/07:00pm 17.5 15.0 10.9 65 3.5 ENE 15 17 8 9 1014.7 1014.7 0.0

Other Formats:

Comma delimited format used in spreadsheet applications
http://www.bom.gov.au/fwo/IDN60801/IDN60801.95784.axf

JavaScript Object Notation format (JSON) in row-major order
http://www.bom.gov.au/fwo/IDN60801/IDN60801.95784.json